Time;durP1;ratioP1;P1;durP2;ratioP2;P2;SDS_P1;SDS_P2;PMS_P1;PMS_P2;Temp;Humidity;BMP_temperature;BMP_pressure;BME280_temperature;BME280_humidity;BME280_pressure;Samples;Min_cycle;Max_cycle;Signal;HPM_P1;HPM_P2
2023/09/12 00:01:06;;;;;;;;;;;;;;;-140.72;100.00;52543.03;5058161;28;20000;-69
2023/09/12 00:03:31;;;;;;;;;;;;;;;-140.72;100.00;52530.88;5075239;28;19920;-69
2023/09/12 00:05:58;;;;;;;;;;;;;;;-140.72;100.00;52569.44;5070617;28;19927;-69
2023/09/12 00:08:23;;;;;;;;;;;;;;;-140.72;100.00;52522.75;5068392;28;19921;-69
2023/09/12 00:11:10;;;;;;;;;;;;;;;-140.72;100.00;52549.13;5074115;28;19931;-70
2023/09/12 00:13:36;;;;;;;;;;;;;;;-140.72;100.00;52575.50;5073360;28;20379;-69
2023/09/12 00:16:01;;;;;;;;;;;;;;;-140.72;100.00;52563.34;5053532;28;19924;-70
2023/09/12 00:18:27;;;;;;;;;;;;;;;-140.72;100.00;52575.50;5062608;28;19921;-69
2023/09/12 00:20:52;;;;;;;;;;;;;;;-140.72;100.00;52549.13;5066895;28;19917;-70
2023/09/12 00:23:18;;;;;;;;;;;;;;;-140.72;100.00;52545.06;5064937;28;19923;-69
2023/09/12 00:28:41;;;;;;;;;;;;;;;-140.72;100.00;52569.44;5075453;28;19932;-70
2023/09/12 00:31:07;;;;;;;;;;;;;;;-140.72;100.00;52628.28;5061329;28;19927;-70
2023/09/12 00:33:32;;;;;;;;;;;;;;;-140.72;100.00;52545.06;5065321;28;19917;-69
2023/09/12 00:35:57;;;;;;;;;;;;;;;-140.72;100.00;52545.06;5080494;28;19916;-69
2023/09/12 00:38:30;;;;;;;;;;;;;;;-140.72;100.00;52577.53;5059237;28;19928;-69
2023/09/12 00:40:55;;;;;;;;;;;;;;;-140.72;100.00;52536.97;5062203;28;20014;-69
2023/09/12 00:43:20;;;;;;;;;;;;;;;-140.72;100.00;52522.75;5059904;28;20339;-69
2023/09/12 00:45:55;;;;;;;;;;;;;;;-140.72;100.00;52581.59;5063927;28;19920;-69
2023/09/12 00:48:21;;;;;;;;;;;;;;;-140.72;100.00;52553.19;5075723;28;19916;-69
2023/09/12 00:50:49;;;;;;;;;;;;;;;-140.72;100.00;52583.63;5064155;28;20267;-69
2023/09/12 00:53:23;;;;;;;;;;;;;;;-140.72;100.00;52593.78;5058383;28;20298;-69
2023/09/12 00:55:56;;;;;;;;;;;;;;;-140.72;100.00;52575.50;5064973;28;19989;-69
2023/09/12 00:58:26;;;;;;;;;;;;;;;-140.72;100.00;52561.31;5069375;28;20332;-69
2023/09/12 01:00:52;;;;;;;;;;;;;;;-140.72;100.00;52549.13;5064917;28;19917;-69
2023/09/12 01:03:17;;;;;;;;;;;;;;;-140.72;100.00;52569.44;5067606;28;19920;-69
2023/09/12 01:05:43;;;;;;;;;;;;;;;-140.72;100.00;52551.16;5072343;28;19960;-70
2023/09/12 01:08:10;;;;;;;;;;;;;;;-140.72;100.00;52551.16;5068628;28;20291;-69
2023/09/12 01:10:35;;;;;;;;;;;;;;;-140.72;100.00;52587.69;5060069;28;19917;-70
2023/09/12 01:13:00;;;;;;;;;;;;;;;-140.72;100.00;52583.63;5070925;28;19921;-70
2023/09/12 01:15:27;;;;;;;;;;;;;;;-140.72;100.00;52543.03;5056596;28;19950;-70
2023/09/12 01:17:52;;;;;;;;;;;;;;;-140.72;100.00;52547.09;5060086;28;19917;-70
2023/09/12 01:20:43;;;;;;;;;;;;;;;-140.72;100.00;52597.84;5060762;28;20397;-70
2023/09/12 01:23:15;;;;;;;;;;;;;;;-140.72;100.00;52567.41;5065031;28;19924;-70
2023/09/12 01:25:53;;;;;;;;;;;;;;;-140.72;100.00;52587.69;5071983;28;19924;-70
2023/09/12 01:31:22;;;;;;;;;;;;;;;-140.72;100.00;52581.59;5064163;28;20464;-70
2023/09/12 01:33:47;;;;;;;;;;;;;;;-140.72;100.00;52577.53;5066439;28;19916;-70
2023/09/12 01:36:12;;;;;;;;;;;;;;;-140.72;100.00;52571.47;5074625;28;20734;-70
2023/09/12 01:38:38;;;;;;;;;;;;;;;-140.72;100.00;52553.19;5075148;28;19916;-70
2023/09/12 01:41:03;;;;;;;;;;;;;;;-140.72;100.00;52581.59;5070013;28;20338;-70
2023/09/12 01:43:29;;;;;;;;;;;;;;;-140.72;100.00;52559.28;5069529;28;19921;-70
2023/09/12 01:45:55;;;;;;;;;;;;;;;-140.72;100.00;52569.44;5071272;28;20295;-70
2023/09/12 01:48:22;;;;;;;;;;;;;;;-140.72;100.00;52589.72;5065073;28;20431;-70
2023/09/12 01:50:48;;;;;;;;;;;;;;;-140.72;100.00;52561.31;5056310;28;20356;-70
2023/09/12 01:53:16;;;;;;;;;;;;;;;-140.72;100.00;52591.75;5069148;28;19928;-70
2023/09/12 01:55:45;;;;;;;;;;;;;;;-140.72;100.00;52581.59;5060497;28;20000;-70
2023/09/12 01:58:11;;;;;;;;;;;;;;;-140.72;100.00;52581.59;5069410;28;19923;-70
2023/09/12 02:00:37;;;;;;;;;;;;;;;-140.72;100.00;52581.59;5087158;28;19924;-70
2023/09/12 02:03:04;;;;;;;;;;;;;;;-140.72;100.00;52601.91;5067144;28;20413;-71
2023/09/12 02:05:29;;;;;;;;;;;;;;;-140.72;100.00;52549.13;5064796;28;19962;-70
2023/09/12 02:07:54;;;;;;;;;;;;;;;-140.72;100.00;52565.38;5077992;28;19920;-70
2023/09/12 02:10:20;;;;;;;;;;;;;;;-140.72;100.00;52575.50;5069221;28;19916;-70
2023/09/12 02:12:46;;;;;;;;;;;;;;;-140.72;100.00;52549.13;5071612;28;19927;-70
2023/09/12 02:15:12;;;;;;;;;;;;;;;-140.72;100.00;52597.84;5081764;28;19995;-70
2023/09/12 02:17:38;;;;;;;;;;;;;;;-140.72;100.00;52569.44;5081408;28;19916;-70
2023/09/12 02:20:06;;;;;;;;;;;;;;;-140.72;100.00;52614.06;5074144;28;19917;-70
2023/09/12 02:22:32;;;;;;;;;;;;;;;-140.72;100.00;52612.03;5077879;28;19916;-70
2023/09/12 02:24:57;;;;;;;;;;;;;;;-140.72;100.00;52585.66;5076193;28;19927;-70
2023/09/12 02:27:22;;;;;;;;;;;;;;;-140.72;100.00;52603.94;5075365;28;19923;-70
2023/09/12 02:29:47;;;;;;;;;;;;;;;-140.72;100.00;52605.94;5058176;28;19928;-70
2023/09/12 02:32:12;;;;;;;;;;;;;;;-140.72;100.00;52601.91;5058667;28;19932;-70
2023/09/12 02:34:38;;;;;;;;;;;;;;;-140.72;100.00;52601.91;5075645;28;19977;-69
2023/09/12 02:37:03;;;;;;;;;;;;;;;-140.72;100.00;52557.25;5067381;28;19928;-69
2023/09/12 02:39:28;;;;;;;;;;;;;;;-140.72;100.00;52601.91;5086202;28;19928;-70
2023/09/12 02:41:53;;;;;;;;;;;;;;;-140.72;100.00;52618.13;5068830;28;19939;-70
2023/09/12 02:44:19;;;;;;;;;;;;;;;-140.72;100.00;52628.28;5064093;28;20354;-70
2023/09/12 02:46:44;;;;;;;;;;;;;;;-140.72;100.00;52614.06;5062026;28;20389;-70
2023/09/12 02:49:09;;;;;;;;;;;;;;;-140.72;100.00;52614.06;5091591;28;20297;-70
2023/09/12 02:51:38;;;;;;;;;;;;;;;-140.72;100.00;52610.00;5078104;28;20435;-70
2023/09/12 02:54:03;;;;;;;;;;;;;;;-140.72;100.00;52569.44;5074760;28;19939;-70
2023/09/12 02:56:28;;;;;;;;;;;;;;;-140.72;100.00;52595.81;5072620;28;20383;-70
2023/09/12 02:58:53;;;;;;;;;;;;;;;-140.72;100.00;52603.94;5082688;28;19959;-70
2023/09/12 03:01:19;;;;;;;;;;;;;;;-140.72;100.00;52569.44;5077266;28;19932;-70
2023/09/12 03:03:48;;;;;;;;;;;;;;;-140.72;100.00;52583.63;5073089;28;19920;-70
2023/09/12 03:06:18;;;;;;;;;;;;;;;-140.72;100.00;52585.66;5059091;28;19954;-70
2023/09/12 03:08:44;;;;;;;;;;;;;;;-140.72;100.00;52591.75;5072477;28;19925;-70
2023/09/12 03:11:09;;;;;;;;;;;;;;;-140.72;100.00;52616.09;5064214;28;19928;-70
2023/09/12 03:13:36;;;;;;;;;;;;;;;-140.72;100.00;52593.78;5063267;28;19940;-70
2023/09/12 03:16:01;;;;;;;;;;;;;;;-140.72;100.00;52601.91;5056237;28;19923;-69
2023/09/12 03:18:26;;;;;;;;;;;;;;;-140.72;100.00;52589.72;5076780;28;19932;-69
2023/09/12 03:20:52;;;;;;;;;;;;;;;-140.72;100.00;52614.06;5065706;28;20302;-70
2023/09/12 03:23:17;;;;;;;;;;;;;;;-140.72;100.00;52605.94;5064799;28;19963;-70
2023/09/12 03:25:42;;;;;;;;;;;;;;;-140.72;100.00;52591.75;5055982;28;19963;-70
2023/09/12 03:28:08;;;;;;;;;;;;;;;-140.72;100.00;52599.88;5060218;28;19947;-70
2023/09/12 03:30:34;;;;;;;;;;;;;;;-140.72;100.00;52591.75;5072531;28;19920;-70
2023/09/12 03:32:59;;;;;;;;;;;;;;;-140.72;100.00;52595.81;5053511;28;19974;-70
2023/09/12 03:35:25;;;;;;;;;;;;;;;-140.72;100.00;52587.69;5071387;28;20379;-70
2023/09/12 03:37:50;;;;;;;;;;;;;;;-140.72;100.00;52601.91;5074621;28;19920;-69
2023/09/12 03:40:15;;;;;;;;;;;;;;;-140.72;100.00;52571.47;5071174;28;19927;-70
2023/09/12 03:42:40;;;;;;;;;;;;;;;-140.72;100.00;52589.72;5072711;28;19916;-70
2023/09/12 03:45:06;;;;;;;;;;;;;;;-140.72;100.00;52595.81;5064065;28;20287;-70
2023/09/12 03:47:31;;;;;;;;;;;;;;;-140.72;100.00;52571.47;5073552;28;19916;-70
2023/09/12 03:49:56;;;;;;;;;;;;;;;-140.72;100.00;52601.91;5076641;28;19959;-70
2023/09/12 03:52:22;;;;;;;;;;;;;;;-140.72;100.00;52599.88;5066171;28;19925;-70
2023/09/12 03:54:47;;;;;;;;;;;;;;;-140.72;100.00;52549.13;5071142;28;20314;-70
2023/09/12 03:57:12;;;;;;;;;;;;;;;-140.72;100.00;52618.13;5069797;28;19916;-71
2023/09/12 03:59:37;;;;;;;;;;;;;;;-140.72;100.00;52585.66;5067378;28;19917;-70
2023/09/12 04:02:10;;;;;;;;;;;;;;;-140.72;100.00;52591.75;5078788;28;20010;-70
2023/09/12 04:04:35;;;;;;;;;;;;;;;-140.72;100.00;52593.78;5064764;28;19963;-71
2023/09/12 04:07:01;;;;;;;;;;;;;;;-140.72;100.00;52614.06;5061627;28;19917;-69
2023/09/12 04:09:27;;;;;;;;;;;;;;;-140.72;100.00;52571.47;5072026;28;19920;-70
2023/09/12 04:11:52;;;;;;;;;;;;;;;-140.72;100.00;52597.84;5072389;28;19916;-70
2023/09/12 04:14:18;;;;;;;;;;;;;;;-140.72;100.00;52573.50;5066838;28;20402;-70
2023/09/12 04:16:53;;;;;;;;;;;;;;;-140.72;100.00;52597.84;5063641;28;19917;-71
2023/09/12 04:19:19;;;;;;;;;;;;;;;-140.72;100.00;52573.50;5073251;28;19924;-79
2023/09/12 04:21:44;;;;;;;;;;;;;;;-140.72;100.00;52565.38;5071112;28;19917;-80
2023/09/12 04:24:09;;;;;;;;;;;;;;;-140.72;100.00;52589.72;5085188;28;20000;-80
2023/09/12 04:26:34;;;;;;;;;;;;;;;-140.72;100.00;52581.59;5077893;28;19920;-77
2023/09/12 04:29:00;;;;;;;;;;;;;;;-140.72;100.00;52599.88;5076511;28;19920;-78
2023/09/12 04:31:25;;;;;;;;;;;;;;;-140.72;100.00;52603.94;5073751;28;19916;-78
2023/09/12 04:33:51;;;;;;;;;;;;;;;-140.72;100.00;52601.91;5075972;28;19955;-77
2023/09/12 04:36:16;;;;;;;;;;;;;;;-140.72;100.00;52614.06;5075203;28;19966;-77
2023/09/12 04:38:42;;;;;;;;;;;;;;;-140.72;100.00;52577.53;5070348;28;19920;-78
2023/09/12 04:41:08;;;;;;;;;;;;;;;-140.72;100.00;52593.78;5076759;28;19920;-78
2023/09/12 04:43:33;;;;;;;;;;;;;;;-140.72;100.00;52593.78;5062707;28;20303;-78
2023/09/12 04:45:59;;;;;;;;;;;;;;;-140.72;100.00;52583.63;5053500;28;19931;-76
2023/09/12 04:48:24;;;;;;;;;;;;;;;-140.72;100.00;52571.47;5069532;28;19963;-76
2023/09/12 04:50:50;;;;;;;;;;;;;;;-140.72;100.00;52581.59;5055676;28;20346;-76
2023/09/12 04:53:15;;;;;;;;;;;;;;;-140.72;100.00;52589.72;5075304;28;19926;-77
2023/09/12 04:55:40;;;;;;;;;;;;;;;-140.72;100.00;52587.69;5056752;28;19947;-78
2023/09/12 04:58:06;;;;;;;;;;;;;;;-140.72;100.00;52569.44;5083244;28;19921;-77
2023/09/12 05:00:32;;;;;;;;;;;;;;;-140.72;100.00;52561.31;5074722;28;19920;-76
2023/09/12 05:02:57;;;;;;;;;;;;;;;-140.72;100.00;52555.22;5077142;28;19927;-77
2023/09/12 05:05:22;;;;;;;;;;;;;;;-140.72;100.00;52610.00;5073117;28;19942;-77
2023/09/12 05:07:47;;;;;;;;;;;;;;;-140.72;100.00;52573.50;5076662;28;19971;-77
2023/09/12 05:10:13;;;;;;;;;;;;;;;-140.72;100.00;52583.63;5075857;28;19922;-76
2023/09/12 05:12:38;;;;;;;;;;;;;;;-140.72;100.00;52593.78;5076400;28;20391;-75
2023/09/12 05:15:03;;;;;;;;;;;;;;;-140.72;100.00;52579.56;5065034;28;20015;-75
2023/09/12 05:17:29;;;;;;;;;;;;;;;-140.72;100.00;52575.50;5073142;28;20050;-75
2023/09/12 05:19:54;;;;;;;;;;;;;;;-140.72;100.00;52585.66;5067462;28;19917;-79
2023/09/12 05:22:20;;;;;;;;;;;;;;;-140.72;100.00;52571.47;5075179;28;20366;-73
2023/09/12 05:24:46;;;;;;;;;;;;;;;-140.72;100.00;52595.81;5072537;28;19920;-73
2023/09/12 05:27:11;;;;;;;;;;;;;;;-140.72;100.00;52557.25;5075883;28;19924;-72
2023/09/12 05:29:37;;;;;;;;;;;;;;;-140.72;100.00;52567.41;5073669;28;19921;-73
2023/09/12 05:32:02;;;;;;;;;;;;;;;-140.72;100.00;52553.19;5074155;28;19917;-72
2023/09/12 05:34:29;;;;;;;;;;;;;;;-140.72;100.00;52567.41;5070016;28;20368;-73
2023/09/12 05:36:54;;;;;;;;;;;;;;;-140.72;100.00;52581.59;5068274;28;19970;-72
2023/09/12 05:39:19;;;;;;;;;;;;;;;-140.72;100.00;52597.84;5071177;28;20330;-73
2023/09/12 05:41:50;;;;;;;;;;;;;;;-140.72;100.00;52543.03;5073128;28;19924;-73
2023/09/12 05:44:27;;;;;;;;;;;;;;;-140.72;100.00;52571.47;5074886;28;19935;-73
2023/09/12 05:46:52;;;;;;;;;;;;;;;-140.72;100.00;52597.84;5076608;28;19971;-73
2023/09/12 05:49:17;;;;;;;;;;;;;;;-140.72;100.00;52545.06;5072546;28;19975;-73
2023/09/12 05:51:43;;;;;;;;;;;;;;;-140.72;100.00;52571.47;5073704;28;19927;-72
2023/09/12 05:54:09;;;;;;;;;;;;;;;-140.72;100.00;52532.91;5065760;28;19958;-72
2023/09/12 05:56:35;;;;;;;;;;;;;;;-140.72;100.00;52577.53;5062618;28;20012;-71
2023/09/12 05:59:00;;;;;;;;;;;;;;;-140.72;100.00;52581.59;5076668;28;20015;-71
2023/09/12 06:01:25;;;;;;;;;;;;;;;-140.72;100.00;52567.41;5078045;28;19974;-71
2023/09/12 06:03:51;;;;;;;;;;;;;;;-140.72;100.00;52534.94;5077765;28;19917;-71
2023/09/12 06:06:16;;;;;;;;;;;;;;;-140.72;100.00;52553.19;5071293;28;20011;-72
2023/09/12 06:08:41;;;;;;;;;;;;;;;-140.72;100.00;52559.28;5069658;28;19921;-70
2023/09/12 06:11:06;;;;;;;;;;;;;;;-140.72;100.00;52549.13;5070615;28;20133;-70
2023/09/12 06:13:32;;;;;;;;;;;;;;;-140.72;100.00;52555.22;5072957;28;19963;-70
2023/09/12 06:15:58;;;;;;;;;;;;;;;-140.72;100.00;52563.34;5086026;28;19931;-70
2023/09/12 06:18:24;;;;;;;;;;;;;;;-140.72;100.00;52541.03;5066411;28;19916;-70
2023/09/12 06:20:49;;;;;;;;;;;;;;;-140.72;100.00;52539.00;5076118;28;20267;-70
2023/09/12 06:23:14;;;;;;;;;;;;;;;-140.72;100.00;52547.09;5077035;28;20394;-71
2023/09/12 06:25:39;;;;;;;;;;;;;;;-140.72;100.00;52543.03;5069606;28;20286;-71
2023/09/12 06:28:10;;;;;;;;;;;;;;;-140.72;100.00;52573.50;5070573;28;19989;-70
2023/09/12 06:30:35;;;;;;;;;;;;;;;-140.72;100.00;52561.31;5074510;28;19917;-70
2023/09/12 06:33:01;;;;;;;;;;;;;;;-140.72;100.00;52549.13;5069375;28;19920;-70
2023/09/12 06:35:27;;;;;;;;;;;;;;;-140.72;100.00;52573.50;5073414;28;19951;-70
2023/09/12 06:37:53;;;;;;;;;;;;;;;-140.72;100.00;52555.22;5068152;28;19923;-70
2023/09/12 06:40:25;;;;;;;;;;;;;;;-140.72;100.00;52553.19;5063768;28;20459;-70
2023/09/12 06:42:50;;;;;;;;;;;;;;;-140.72;100.00;52541.03;5066684;28;20363;-71
2023/09/12 06:45:15;;;;;;;;;;;;;;;-140.72;100.00;52567.41;5065804;28;19921;-72
2023/09/12 06:47:40;;;;;;;;;;;;;;;-140.72;100.00;52532.91;5078871;28;20393;-71
2023/09/12 06:50:06;;;;;;;;;;;;;;;-140.72;100.00;52543.03;5069755;28;19967;-69
2023/09/12 06:52:39;;;;;;;;;;;;;;;-140.72;100.00;52506.53;5063341;28;19927;-70
2023/09/12 06:55:05;;;;;;;;;;;;;;;-140.72;100.00;52545.06;5068252;28;19922;-69
2023/09/12 06:57:30;;;;;;;;;;;;;;;-140.72;100.00;52530.88;5062462;28;20011;-69
2023/09/12 06:59:55;;;;;;;;;;;;;;;-140.72;100.00;52545.06;5073965;28;20036;-69
2023/09/12 07:02:24;;;;;;;;;;;;;;;-140.72;100.00;52543.03;5064246;28;20680;-72
2023/09/12 07:04:49;;;;;;;;;;;;;;;-140.72;100.00;52547.09;5070148;28;19920;-72
2023/09/12 07:10:17;;;;;;;;;;;;;;;-140.72;100.00;52543.03;5065136;28;19970;-72
2023/09/12 07:12:42;;;;;;;;;;;;;;;-140.72;100.00;52549.13;5069385;28;20362;-71
2023/09/12 07:15:09;;;;;;;;;;;;;;;-140.72;100.00;52518.69;5067576;28;19933;-71
2023/09/12 07:17:34;;;;;;;;;;;;;;;-140.72;100.00;52581.59;5070596;28;20021;-71
2023/09/12 07:19:59;;;;;;;;;;;;;;;-140.72;100.00;52532.91;5071736;28;19920;-71
2023/09/12 07:22:26;;;;;;;;;;;;;;;-140.72;100.00;52504.50;5068307;28;19917;-72
2023/09/12 07:24:51;;;;;;;;;;;;;;;-140.72;100.00;52545.06;5066007;28;19921;-72
2023/09/12 07:27:16;;;;;;;;;;;;;;;-140.72;100.00;52532.91;5067822;28;19928;-71
2023/09/12 07:29:41;;;;;;;;;;;;;;;-140.72;100.00;52518.69;5063191;28;19921;-71
2023/09/12 07:32:06;;;;;;;;;;;;;;;-140.72;100.00;52516.66;5070921;28;19920;-72
2023/09/12 07:34:33;;;;;;;;;;;;;;;-140.72;100.00;52522.75;5058200;28;19927;-72
2023/09/12 07:36:58;;;;;;;;;;;;;;;-140.72;100.00;52545.06;5070879;28;19923;-71
2023/09/12 07:39:23;;;;;;;;;;;;;;;-140.72;100.00;52512.59;5067055;28;19920;-71
2023/09/12 07:41:49;;;;;;;;;;;;;;;-140.72;100.00;52512.59;5067653;28;19921;-71
2023/09/12 07:44:16;;;;;;;;;;;;;;;-140.72;100.00;52536.97;5074643;28;19975;-71
2023/09/12 07:46:41;;;;;;;;;;;;;;;-140.72;100.00;52545.06;5075127;28;20291;-71
2023/09/12 07:49:09;;;;;;;;;;;;;;;-140.72;100.00;52530.88;5076352;28;19920;-71
2023/09/12 07:51:34;;;;;;;;;;;;;;;-140.72;100.00;52553.19;5090215;28;20271;-71
2023/09/12 07:53:59;;;;;;;;;;;;;;;-140.72;100.00;52516.66;5074301;28;19970;-71
2023/09/12 07:56:24;;;;;;;;;;;;;;;-140.72;100.00;52512.59;5066143;28;19983;-71
2023/09/12 07:58:50;;;;;;;;;;;;;;;-140.72;100.00;52476.09;5073785;28;19924;-71
2023/09/12 08:01:15;;;;;;;;;;;;;;;-140.72;100.00;52486.22;5065840;28;19964;-72
2023/09/12 08:03:41;;;;;;;;;;;;;;;-140.72;100.00;52504.50;5072293;28;19920;-72
2023/09/12 08:06:07;;;;;;;;;;;;;;;-140.72;100.00;52453.75;5064022;28;20019;-72
2023/09/12 08:08:32;;;;;;;;;;;;;;;-140.72;100.00;52480.16;5060162;28;20043;-73
2023/09/12 08:10:57;;;;;;;;;;;;;;;-140.72;100.00;52465.94;5060785;28;19924;-71
2023/09/12 08:13:25;;;;;;;;;;;;;;;-140.72;100.00;52461.88;5079161;28;19917;-72
2023/09/12 08:15:51;;;;;;;;;;;;;;;-140.72;100.00;52447.69;5059030;28;19917;-71
2023/09/12 08:18:16;;;;;;;;;;;;;;;-140.72;100.00;52474.06;5065462;28;20397;-71
2023/09/12 08:20:43;;;;;;;;;;;;;;;-140.72;100.00;52419.28;5069679;28;20378;-72
2023/09/12 08:23:08;;;;;;;;;;;;;;;-140.72;100.00;52465.94;5065498;28;19994;-72
2023/09/12 08:25:33;;;;;;;;;;;;;;;-140.72;100.00;52478.13;5067829;28;19993;-70
2023/09/12 08:27:58;;;;;;;;;;;;;;;-140.72;100.00;52443.63;5062030;28;19920;-70
2023/09/12 08:30:25;;;;;;;;;;;;;;;-140.72;100.00;52451.72;5067241;28;20478;-71
2023/09/12 08:32:51;;;;;;;;;;;;;;;-140.72;100.00;52443.63;5062852;28;19920;-71
2023/09/12 08:35:16;;;;;;;;;;;;;;;-140.72;100.00;52455.78;5063371;28;19917;-71
2023/09/12 08:37:41;;;;;;;;;;;;;;;-140.72;100.00;52443.63;5067554;28;19928;-71
2023/09/12 08:40:10;;;;;;;;;;;;;;;-140.72;100.00;52431.44;5075268;28;19916;-71
2023/09/12 08:42:44;;;;;;;;;;;;;;;-140.72;100.00;52396.94;5065461;28;19920;-70
2023/09/12 08:45:10;;;;;;;;;;;;;;;-140.72;100.00;52451.72;5070334;28;19923;-71
2023/09/12 08:47:35;;;;;;;;;;;;;;;-140.72;100.00;52417.25;5066319;28;20011;-70
2023/09/12 08:50:03;;;;;;;;;;;;;;;-140.72;100.00;52394.91;5070264;28;19974;-72
2023/09/12 08:52:28;;;;;;;;;;;;;;;-140.72;100.00;52344.19;5067747;28;19967;-70
2023/09/12 08:54:53;;;;;;;;;;;;;;;-140.72;100.00;52356.38;5079859;28;19928;-70
2023/09/12 08:57:19;;;;;;;;;;;;;;;-140.72;100.00;52325.94;5074321;28;20004;-70
2023/09/12 08:59:47;;;;;;;;;;;;;;;-140.72;100.00;52319.84;5093500;28;19920;-70
2023/09/12 09:02:13;;;;;;;;;;;;;;;-140.72;100.00;52305.63;5071077;28;19967;-70
2023/09/12 09:04:39;;;;;;;;;;;;;;;-140.72;100.00;52240.72;5073190;28;20022;-71
2023/09/12 09:07:05;;;;;;;;;;;;;;;-140.72;100.00;52293.47;5064879;28;19936;-72
2023/09/12 09:09:31;;;;;;;;;;;;;;;-140.72;100.00;52265.06;5071273;28;19924;-72
2023/09/12 09:11:56;;;;;;;;;;;;;;;-140.72;100.00;52244.78;5069005;28;19927;-73
2023/09/12 09:14:21;;;;;;;;;;;;;;;-140.72;100.00;52258.97;5073133;28;19920;-72
2023/09/12 09:16:47;;;;;;;;;;;;;;;-140.72;100.00;52325.94;5074409;28;20339;-72
2023/09/12 09:19:12;;;;;;;;;;;;;;;-140.72;100.00;52323.91;5067603;28;19921;-72
2023/09/12 09:21:40;;;;;;;;;;;;;;;-140.72;100.00;52332.03;5071896;28;19920;-72
2023/09/12 09:24:09;;;;;;;;;;;;;;;-140.72;100.00;52360.44;5074117;28;20379;-72
2023/09/12 09:26:40;;;;;;;;;;;;;;;-140.72;100.00;52307.66;5072411;28;19986;-73
2023/09/12 09:29:08;;;;;;;;;;;;;;;-140.72;100.00;52277.22;5073733;28;19921;-73
2023/09/12 09:31:34;;;;;;;;;;;;;;;-140.72;100.00;52277.22;5071968;28;19994;-72
2023/09/12 09:34:01;;;;;;;;;;;;;;;-140.72;100.00;52246.78;5075244;28;20457;-72
2023/09/12 09:36:26;;;;;;;;;;;;;;;-140.72;100.00;52265.06;5076160;28;19959;-72
2023/09/12 09:38:51;;;;;;;;;;;;;;;-140.72;100.00;52254.91;5074377;28;19982;-72
2023/09/12 09:41:20;;;;;;;;;;;;;;;-140.72;100.00;52327.97;5088954;28;19920;-72
2023/09/12 09:43:45;;;;;;;;;;;;;;;-140.72;100.00;52240.72;5072526;28;19984;-72
2023/09/12 09:46:15;;;;;;;;;;;;;;;-140.72;100.00;52224.47;5067366;28;20438;-72
2023/09/12 09:48:48;;;;;;;;;;;;;;;-140.72;100.00;52236.66;5072621;28;20396;-72
2023/09/12 09:51:13;;;;;;;;;;;;;;;-140.72;100.00;52224.47;5076035;28;19928;-72
2023/09/12 09:53:39;;;;;;;;;;;;;;;-140.72;100.00;52189.97;5075233;28;19924;-72
2023/09/12 09:56:12;;;;;;;;;;;;;;;-140.72;100.00;52226.50;5075662;28;19921;-72
2023/09/12 09:58:57;;;;;;;;;;;;;;;-140.72;100.00;52236.66;5070577;28;19932;-71
2023/09/12 10:01:27;;;;;;;;;;;;;;;-140.72;100.00;52267.09;5073711;28;19924;-70
2023/09/12 10:03:52;;;;;;;;;;;;;;;-140.72;100.00;52291.44;5063415;28;19928;-71
2023/09/12 10:06:19;;;;;;;;;;;;;;;-140.72;100.00;52240.72;5071915;28;19920;-71
2023/09/12 10:08:46;;;;;;;;;;;;;;;-140.72;100.00;52232.59;5069104;28;19920;-71
2023/09/12 10:11:14;;;;;;;;;;;;;;;-140.72;100.00;52236.66;5073006;28;19927;-72
2023/09/12 10:13:41;;;;;;;;;;;;;;;-140.72;100.00;52208.25;5071662;28;19924;-71
2023/09/12 10:16:07;;;;;;;;;;;;;;;-140.72;100.00;52143.31;5074368;28;19998;-71
2023/09/12 10:18:35;;;;;;;;;;;;;;;-140.72;100.00;52163.59;5074229;28;19921;-71
2023/09/12 10:21:15;;;;;;;;;;;;;;;-140.72;100.00;52147.38;5074322;28;19973;-71
2023/09/12 10:23:45;;;;;;;;;;;;;;;-140.72;100.00;52173.75;5072253;28;19931;-71
2023/09/12 10:26:13;;;;;;;;;;;;;;;-140.72;100.00;52194.03;5070092;28;19927;-72
2023/09/12 10:28:42;;;;;;;;;;;;;;;-140.72;100.00;52218.38;5061725;28;19998;-72
2023/09/12 10:31:08;;;;;;;;;;;;;;;-140.72;100.00;52198.09;5061222;28;19924;-71
2023/09/12 10:33:34;;;;;;;;;;;;;;;-140.72;100.00;52155.50;5061844;28;19974;-71
2023/09/12 10:36:01;;;;;;;;;;;;;;;-140.72;100.00;52153.47;5072491;28;20007;-72
2023/09/12 10:38:29;;;;;;;;;;;;;;;-140.72;100.00;52080.41;5067748;28;20005;-71
2023/09/12 10:40:55;;;;;;;;;;;;;;;-140.72;30.76;52074.34;5067542;28;19956;-72
2023/09/12 10:43:20;;;;;;;;;;;;;;;-140.72;6.12;52108.81;5069869;28;20350;-72
2023/09/12 10:45:46;;;;;;;;;;;;;;;-140.72;0.00;52090.56;5067871;28;19921;-72
2023/09/12 10:48:11;;;;;;;;;;;;;;;-140.72;0.00;52045.94;5068775;28;19928;-73
2023/09/12 10:50:37;;;;;;;;;;;;;;;-140.72;0.00;51995.19;5074158;28;20395;-70
2023/09/12 10:53:13;;;;;;;;;;;;;;;-140.72;0.00;51964.78;5073725;28;19927;-71
2023/09/12 10:55:39;;;;;;;;;;;;;;;-140.72;0.00;51999.25;5062412;28;19928;-71
2023/09/12 10:58:05;;;;;;;;;;;;;;;-140.72;0.00;52114.91;5077574;28;20511;-71
2023/09/12 11:00:34;;;;;;;;;;;;;;;-140.72;0.00;52043.91;5073725;28;19969;-72
2023/09/12 11:03:19;;;;;;;;;;;;;;;-140.72;0.00;52072.31;5070093;28;19939;-71
2023/09/12 11:05:51;;;;;;;;;;;;;;;-140.72;0.00;52049.97;5074386;28;19975;-71
2023/09/12 11:08:17;;;;;;;;;;;;;;;-140.72;0.00;52062.16;5067317;28;19951;-71
2023/09/12 11:10:42;;;;;;;;;;;;;;;-140.72;0.00;52151.44;5068826;28;19920;-71
2023/09/12 11:13:16;;;;;;;;;;;;;;;-140.72;0.00;52123.03;5072064;28;19921;-71
2023/09/12 11:16:01;;;;;;;;;;;;;;;-140.72;0.00;52098.69;5064553;28;20378;-73
2023/09/12 11:18:27;;;;;;;;;;;;;;;-140.72;0.00;52080.41;5075061;28;19921;-72
2023/09/12 11:20:58;;;;;;;;;;;;;;;-140.72;0.00;52135.19;5059005;28;19917;-72
2023/09/12 11:23:25;;;;;;;;;;;;;;;-140.72;0.00;52033.75;5069822;28;19986;-77
2023/09/12 11:26:03;;;;;;;;;;;;;;;-140.72;0.00;52023.59;5059843;28;19932;-71
2023/09/12 11:28:29;;;;;;;;;;;;;;;-140.72;0.00;52017.53;5070305;28;20367;-71
2023/09/12 11:30:56;;;;;;;;;;;;;;;-140.72;0.00;52062.16;5072561;28;19924;-76
2023/09/12 11:33:23;;;;;;;;;;;;;;;-140.72;0.00;52066.22;5072918;28;19917;-71
2023/09/12 11:35:51;;;;;;;;;;;;;;;-140.72;0.00;52041.88;5072286;28;19920;-71
2023/09/12 11:38:25;;;;;;;;;;;;;;;-140.72;0.00;52133.16;5072663;28;19927;-71
2023/09/12 11:40:50;;;;;;;;;;;;;;;-140.72;0.00;52143.31;5068315;28;19925;-71
2023/09/12 11:43:23;;;;;;;;;;;;;;;-140.72;0.00;52192.00;5066948;28;19927;-70
2023/09/12 11:45:48;;;;;;;;;;;;;;;-140.72;0.00;52216.34;5072150;28;20293;-71
2023/09/12 11:48:14;;;;;;;;;;;;;;;-140.72;0.00;52202.16;5068034;28;20019;-71
2023/09/12 11:50:41;;;;;;;;;;;;;;;-140.72;11.33;52208.25;5067549;28;19920;-71
2023/09/12 11:53:07;;;;;;;;;;;;;;;-140.72;100.00;52250.84;5070748;28;21146;-71
2023/09/12 11:55:43;;;;;;;;;;;;;;;-140.72;100.00;52246.78;5070409;28;19928;-71
2023/09/12 11:58:10;;;;;;;;;;;;;;;-140.72;100.00;52321.88;5071848;28;19935;-71
2023/09/12 12:00:35;;;;;;;;;;;;;;;-140.72;100.00;52366.50;5071856;28;19928;-71
2023/09/12 12:03:00;;;;;;;;;;;;;;;-140.72;100.00;52323.91;5071186;28;20382;-71
2023/09/12 12:05:26;;;;;;;;;;;;;;;-140.72;100.00;52344.19;5069431;28;20015;-71
2023/09/12 12:07:51;;;;;;;;;;;;;;;-140.72;100.00;52354.34;5065725;28;19928;-71
2023/09/12 12:10:17;;;;;;;;;;;;;;;-140.72;100.00;52334.03;5072121;28;19928;-71
2023/09/12 12:12:48;;;;;;;;;;;;;;;-140.72;100.00;52325.94;5067533;28;20058;-70
2023/09/12 12:15:13;;;;;;;;;;;;;;;-140.72;100.00;52307.66;5070108;28;20055;-70
2023/09/12 12:17:41;;;;;;;;;;;;;;;-140.72;100.00;52348.25;5070760;28;20019;-71
2023/09/12 12:20:10;;;;;;;;;;;;;;;-140.72;100.00;52342.16;5064434;28;19921;-71
2023/09/12 12:22:35;;;;;;;;;;;;;;;-140.72;100.00;52358.41;5072648;28;20488;-71
2023/09/12 12:25:05;;;;;;;;;;;;;;;-140.72;100.00;52321.88;5070356;28;20019;-71